メインページ
METAR-TAF:

METAR-TAF

空港 :

Alpena, ミシガン州, アメリカ合衆国

緯度: 45-04-18N, 経度: 083-33-52W, 海抜: 210m

現時点の気象観測

当レポートは48分前の19:54(UTC)に作成
気温 27°C
湿度 28%
気圧 1017 hPa
視程: 16.1km
晴天

METAR: KAPN 191954Z AUTO 10SM CLR 27/07 A3002 RMK AO2 SLP164 T02670072

時間: 16:42 (20:42 UTC)

予報

当レポートは1時間18分前の19:24(UTC)に作成
予報は19日の 19時(UTC)から 20日の 18時(UTC)まで有効
東/南東の風 6kt
視程: 10km
晴天
20日の 1000時(UTC)から
変向風 3kt
視程: 10km
晴天
20日の 1500時(UTC)から
南西の風 6kt
視程: 10km
晴天

TAF: KAPN 191924Z 1919/2018 12006KT P6SM SKC FM201000 VRB03KT P6SM SKC FM201500 22006KT P6SM SKC

4,000以上の空港の気象観測と天気予報(METAR報とTAF報)

利用可能な観測所は地図上に黄色い丸と赤い丸で示す。

丸の上にカーソルを重ねると観測所名を参照できる。

次にクリックすると気象観測と天気予報を参照できる。

マップの切り替え:黒色「×」印の緑ボタンをクリックして拡大、「-」印の緑ボタンをクリックして縮小、緑色の三角印をクリックして隣りの地図に切り替え


METAR-TAF: